createdAt,value
2023-04-03T00:00:55.230Z,102751.13
2023-04-03T00:03:21.909Z,102795.09
2023-04-03T00:05:48.847Z,102799.31
2023-04-03T00:08:16.199Z,102792.69
2023-04-03T00:10:43.409Z,102782.88
2023-04-03T00:13:10.910Z,102787.31
2023-04-03T00:15:38.029Z,102795.66
2023-04-03T00:18:05.673Z,102766.75
2023-04-03T00:20:32.860Z,102775.66
2023-04-03T00:22:59.742Z,102805.38
2023-04-03T00:25:26.595Z,102771.75
2023-04-03T00:27:53.311Z,102714.09
2023-04-03T00:30:21.839Z,102680.06
2023-04-03T00:32:53.153Z,102815.38
2023-04-03T00:35:21.543Z,102781.13
2023-04-03T00:37:49.280Z,102821.88
2023-04-03T00:40:17.041Z,102717.03
2023-04-03T00:42:45.267Z,102712.59
2023-04-03T00:45:11.832Z,102809.09
2023-04-03T00:47:40.647Z,102806.50
2023-04-03T00:50:08.086Z,102774.50
2023-04-03T00:52:34.814Z,102801.81
2023-04-03T00:55:04.873Z,102825.88
2023-04-03T00:57:32.719Z,102798.16
2023-04-03T01:00:06.154Z,102824.53
2023-04-03T01:02:32.958Z,102803.41
2023-04-03T01:05:00.354Z,102792.97
2023-04-03T01:07:34.947Z,102809.66
2023-04-03T01:10:05.856Z,102819.94
2023-04-03T01:12:35.757Z,102732.88
2023-04-03T01:15:36.043Z,102828.59
2023-04-03T01:18:03.786Z,102816.72
2023-04-03T01:20:33.360Z,102825.84
2023-04-03T01:23:04.016Z,102839.63
2023-04-03T01:25:30.882Z,102828.34
2023-04-03T01:27:59.762Z,102828.00
2023-04-03T01:30:32.410Z,102732.84
2023-04-03T01:32:59.869Z,102799.84
2023-04-03T01:35:26.819Z,102772.31
2023-04-03T01:37:53.820Z,102814.59
2023-04-03T01:40:20.634Z,102811.84
2023-04-03T01:42:47.774Z,102823.50
2023-04-03T01:45:14.454Z,102732.13
2023-04-03T01:47:41.174Z,102855.44
2023-04-03T01:50:08.254Z,102807.00
2023-04-03T01:52:35.364Z,102836.50
2023-04-03T01:55:02.009Z,102799.00
2023-04-03T01:57:29.017Z,102826.75
2023-04-03T01:59:55.750Z,102804.56
2023-04-03T02:02:22.470Z,102795.97
2023-04-03T02:04:49.059Z,102713.47
2023-04-03T02:07:15.723Z,102808.53
2023-04-03T02:09:42.355Z,102824.25
2023-04-03T02:12:09.525Z,102858.50
2023-04-03T02:14:36.261Z,102821.03
2023-04-03T02:17:09.548Z,102733.94
2023-04-03T02:19:36.766Z,102841.44
2023-04-03T02:22:04.996Z,102739.16
2023-04-03T02:24:32.246Z,102813.88
2023-04-03T02:26:59.668Z,102807.34
2023-04-03T02:29:26.633Z,102839.00
2023-04-03T02:31:54.007Z,102740.03
2023-04-03T02:34:22.893Z,102824.94
2023-04-03T02:36:50.377Z,102759.41
2023-04-03T02:39:18.825Z,102743.63
2023-04-03T02:41:45.540Z,102864.03
2023-04-03T02:44:19.769Z,102740.78
2023-04-03T02:46:46.691Z,102855.06
2023-04-03T02:49:13.320Z,102851.66
2023-04-03T02:51:40.449Z,102849.31
2023-04-03T02:54:07.326Z,102823.97
2023-04-03T02:56:36.528Z,102838.88
2023-04-03T02:59:03.959Z,102738.88
2023-04-03T03:01:33.432Z,102818.25
2023-04-03T03:04:01.397Z,102855.88
2023-04-03T03:06:28.114Z,102817.22
2023-04-03T03:08:55.018Z,102793.84
2023-04-03T03:11:22.034Z,102855.38
2023-04-03T03:13:48.850Z,102856.19
2023-04-03T03:16:15.577Z,102735.63
2023-04-03T03:18:42.344Z,102835.53
2023-04-03T03:21:10.740Z,102785.69
2023-04-03T03:23:38.540Z,102830.25
2023-04-03T03:26:08.498Z,102799.28
2023-04-03T03:28:37.265Z,102853.59
2023-04-03T03:31:07.044Z,102855.47
2023-04-03T03:33:35.364Z,102846.59
2023-04-03T03:36:02.034Z,102845.44
2023-04-03T03:38:29.685Z,102853.94
2023-04-03T03:40:56.345Z,102877.47
2023-04-03T03:43:24.671Z,102870.69
2023-04-03T03:45:54.750Z,102778.16
2023-04-03T03:48:22.958Z,102853.69
2023-04-03T03:50:49.907Z,102868.34
2023-04-03T03:53:18.010Z,102892.66
2023-04-03T03:55:44.972Z,102887.56
2023-04-03T03:58:11.560Z,102872.00
2023-04-03T04:00:38.398Z,102843.50
2023-04-03T04:03:05.889Z,102859.47
2023-04-03T04:05:32.629Z,102897.91
2023-04-03T04:08:01.252Z,102903.66
2023-04-03T04:10:28.288Z,102895.44
2023-04-03T04:12:58.456Z,102912.56
2023-04-03T04:15:28.023Z,102886.41
2023-04-03T04:17:56.243Z,102881.44
2023-04-03T04:20:23.425Z,102823.91
2023-04-03T04:22:50.118Z,102886.41
2023-04-03T04:25:18.599Z,102873.59
2023-04-03T04:27:45.785Z,102908.53
2023-04-03T04:30:14.920Z,102892.44
2023-04-03T04:32:42.413Z,102918.34
2023-04-03T04:35:09.480Z,102844.19
2023-04-03T04:37:40.234Z,102915.47
2023-04-03T04:40:07.644Z,102780.53
2023-04-03T04:42:34.457Z,102920.69
2023-04-03T04:45:01.705Z,102876.88
2023-04-03T04:47:30.765Z,102802.97
2023-04-03T04:49:57.749Z,102904.06
2023-04-03T04:52:24.700Z,102922.53
2023-04-03T04:54:51.483Z,102876.19
2023-04-03T04:57:18.559Z,102907.84
2023-04-03T04:59:46.033Z,102895.94
2023-04-03T05:02:12.656Z,102901.31
2023-04-03T05:04:41.138Z,102929.84
2023-04-03T05:07:13.563Z,102949.97
2023-04-03T05:09:43.149Z,102794.31
2023-04-03T05:12:10.671Z,102930.59
2023-04-03T05:14:43.095Z,102955.47
2023-04-03T05:17:11.117Z,102924.88
2023-04-03T05:19:40.958Z,102919.63
2023-04-03T05:22:09.250Z,102935.59
2023-04-03T05:24:36.505Z,102898.94
2023-04-03T05:27:05.524Z,102909.94
2023-04-03T05:29:35.632Z,102913.34
2023-04-03T05:32:04.105Z,102932.31
2023-04-03T05:34:30.921Z,102919.91
2023-04-03T05:36:57.825Z,102922.00
2023-04-03T05:39:26.486Z,102896.88
2023-04-03T05:41:53.185Z,102926.97
2023-04-03T05:44:20.051Z,102904.72
2023-04-03T05:46:49.688Z,102932.97
2023-04-03T05:49:16.492Z,102963.34
2023-04-03T05:51:43.143Z,102936.13
2023-04-03T05:54:27.459Z,102963.09
2023-04-03T05:57:00.518Z,102952.09
2023-04-03T05:59:28.098Z,102942.28
2023-04-03T06:01:57.717Z,102951.56
2023-04-03T06:04:25.166Z,102963.34
2023-04-03T06:06:54.944Z,102980.31
2023-04-03T06:09:24.233Z,102964.59
2023-04-03T06:11:51.251Z,102985.53
2023-04-03T06:14:18.324Z,102900.50
2023-04-03T06:16:45.591Z,102949.78
2023-04-03T06:19:13.367Z,102867.28
2023-04-03T06:21:45.518Z,102977.50
2023-04-03T06:24:16.162Z,102961.25
2023-04-03T06:26:43.125Z,102938.22
2023-04-03T06:29:10.069Z,102885.22
2023-04-03T06:31:39.824Z,102948.78
2023-04-03T06:34:09.556Z,102937.91
2023-04-03T06:36:38.323Z,102953.97
2023-04-03T06:39:05.508Z,102964.78
2023-04-03T06:41:32.554Z,102985.41
2023-04-03T06:43:59.694Z,102923.00
2023-04-03T06:46:27.809Z,102955.59
2023-04-03T06:48:54.992Z,102962.34
2023-04-03T06:51:30.104Z,102965.97
2023-04-03T06:53:59.047Z,102984.84
2023-04-03T06:56:27.355Z,102946.75
2023-04-03T06:58:57.220Z,102993.44
2023-04-03T07:01:25.976Z,103002.56
2023-04-03T07:03:53.532Z,102926.59
2023-04-03T07:06:22.112Z,102899.53
2023-04-03T07:08:52.275Z,102927.47
2023-04-03T07:11:18.961Z,102970.81
2023-04-03T07:13:45.858Z,102977.88
2023-04-03T07:16:12.595Z,102914.78
2023-04-03T07:18:39.647Z,102987.34
2023-04-03T07:21:07.035Z,102997.25
2023-04-03T07:23:33.865Z,103027.72
2023-04-03T07:26:00.652Z,103000.28
2023-04-03T07:28:27.594Z,103006.34
2023-04-03T07:31:00.755Z,102946.16
2023-04-03T07:33:27.469Z,103003.00
2023-04-03T07:35:54.149Z,103037.16
2023-04-03T07:38:20.896Z,103011.03
2023-04-03T07:40:51.936Z,102900.44
2023-04-03T07:43:19.397Z,103026.44
2023-04-03T07:45:46.305Z,103015.25
2023-04-03T07:48:13.881Z,103040.22
2023-04-03T07:50:44.046Z,103009.94
2023-04-03T07:53:11.148Z,103029.81
2023-04-03T07:55:43.876Z,103048.41
2023-04-03T07:58:12.346Z,103023.72
2023-04-03T08:00:39.753Z,103032.88
2023-04-03T08:03:09.713Z,103033.34
2023-04-03T08:05:43.155Z,103029.94
2023-04-03T08:08:14.097Z,102986.72
2023-04-03T08:10:41.302Z,102994.13
2023-04-03T08:13:08.126Z,103035.63
2023-04-03T08:15:35.555Z,103038.91
2023-04-03T08:18:02.563Z,103040.31
2023-04-03T08:20:30.533Z,103040.78
2023-04-03T08:22:57.255Z,103039.63
2023-04-03T08:25:23.988Z,102999.38
2023-04-03T08:27:50.523Z,103023.19
2023-04-03T08:30:17.601Z,102930.66
2023-04-03T08:32:45.230Z,103028.56
2023-04-03T08:35:12.318Z,103038.81
2023-04-03T08:37:40.172Z,103048.81
2023-04-03T08:40:11.996Z,103001.56
2023-04-03T08:42:57.134Z,103046.84
2023-04-03T08:45:44.790Z,102984.81
2023-04-03T08:48:28.482Z,103034.97
2023-04-03T08:51:03.274Z,103007.34
2023-04-03T08:53:34.895Z,103034.38
2023-04-03T08:56:07.746Z,102998.25
2023-04-03T08:58:58.099Z,103014.28
2023-04-03T09:01:34.687Z,103003.44
2023-04-03T09:04:13.329Z,103017.56
2023-04-03T09:06:43.667Z,103029.38
2023-04-03T09:09:23.608Z,103043.16
2023-04-03T09:12:21.110Z,103041.06
2023-04-03T09:15:12.219Z,103012.00
2023-04-03T09:17:44.956Z,103051.47
2023-04-03T09:20:32.108Z,103003.72
2023-04-03T09:22:59.045Z,103010.72
2023-04-03T09:25:34.051Z,103042.91
2023-04-03T09:28:02.763Z,103029.28
2023-04-03T09:30:30.011Z,103027.72
2023-04-03T09:32:58.202Z,102985.34
2023-04-03T09:35:44.665Z,103042.75
2023-04-03T09:38:15.032Z,103036.13
2023-04-03T09:41:04.820Z,103023.34
2023-04-03T09:43:33.926Z,103026.13
2023-04-03T09:46:27.446Z,103028.16
2023-04-03T09:49:08.186Z,103025.34
2023-04-03T09:51:36.807Z,102957.34
2023-04-03T09:54:26.435Z,103017.44
2023-04-03T09:56:56.670Z,102939.47
2023-04-03T09:59:23.778Z,102986.38
2023-04-03T10:02:04.813Z,103009.75
2023-04-03T10:04:42.688Z,102969.94
2023-04-03T10:07:31.368Z,102924.59
2023-04-03T10:09:59.940Z,102995.66
2023-04-03T10:12:26.694Z,103003.16
2023-04-03T10:14:58.852Z,102984.13
2023-04-03T10:17:54.641Z,102973.19
2023-04-03T10:20:30.250Z,102984.22
2023-04-03T10:23:18.892Z,102901.06
2023-04-03T10:26:29.551Z,102977.00
2023-04-03T10:29:09.975Z,102997.72
2023-04-03T10:31:42.683Z,102994.81
2023-04-03T10:34:25.619Z,102958.69
2023-04-03T10:37:05.440Z,102955.38
2023-04-03T10:39:46.292Z,102947.25
2023-04-03T10:42:19.601Z,102895.41
2023-04-03T10:45:04.972Z,102958.38
2023-04-03T10:48:02.200Z,102917.38
2023-04-03T10:51:07.394Z,102968.00
2023-04-03T10:53:53.112Z,102946.19
2023-04-03T10:56:35.372Z,102940.66
2023-04-03T10:59:22.064Z,102948.69
2023-04-03T11:02:01.695Z,102877.75
2023-04-03T11:04:32.888Z,102940.25
2023-04-03T11:07:04.286Z,102946.72
2023-04-03T11:09:40.788Z,102944.66
2023-04-03T11:12:30.465Z,102940.75
2023-04-03T11:14:58.200Z,102933.50
2023-04-03T11:17:37.403Z,102919.06
2023-04-03T11:20:18.428Z,102904.94
2023-04-03T11:23:02.256Z,102845.84
2023-04-03T11:25:33.309Z,102838.72
2023-04-03T11:28:05.258Z,102912.44
2023-04-03T11:30:51.173Z,102921.53
2023-04-03T11:34:00.506Z,102931.66
2023-04-03T11:36:40.573Z,102817.69
2023-04-03T11:39:25.494Z,102882.28
2023-04-03T11:42:00.268Z,102888.75
2023-04-03T11:44:39.699Z,102821.97
2023-04-03T11:47:12.730Z,102915.19
2023-04-03T11:49:57.396Z,102912.28
2023-04-03T11:52:41.502Z,102911.63
2023-04-03T11:55:25.286Z,102912.78
2023-04-03T11:58:04.129Z,102916.56
2023-04-03T12:00:52.322Z,102912.78
2023-04-03T12:03:28.484Z,102898.72
2023-04-03T12:06:05.737Z,102881.25
2023-04-03T12:08:35.321Z,102903.34
2023-04-03T12:11:17.664Z,102895.34
2023-04-03T12:13:53.337Z,102895.16
2023-04-03T12:16:24.556Z,102867.97
2023-04-03T12:18:54.256Z,102902.50
2023-04-03T12:21:25.004Z,102798.31
2023-04-03T12:24:09.959Z,102886.56
2023-04-03T12:26:52.035Z,102808.44
2023-04-03T12:29:28.910Z,102864.00
2023-04-03T12:32:04.971Z,102875.97
2023-04-03T12:34:59.112Z,102865.13
2023-04-03T12:37:47.037Z,102874.09
2023-04-03T12:40:32.629Z,102885.16
2023-04-03T12:43:15.927Z,102882.94
2023-04-03T12:45:49.598Z,102776.63
2023-04-03T12:48:18.752Z,102851.84
2023-04-03T12:50:47.945Z,102844.16
2023-04-03T12:53:19.483Z,102866.41
2023-04-03T12:55:46.480Z,102871.88
2023-04-03T12:58:28.233Z,102841.97
2023-04-03T13:01:04.521Z,102846.19
2023-04-03T13:03:31.963Z,102842.34
2023-04-03T13:06:02.879Z,102827.81
2023-04-03T13:08:29.744Z,102803.59
2023-04-03T13:11:02.247Z,102762.91
2023-04-03T13:13:28.979Z,102846.00
2023-04-03T13:15:56.130Z,102826.19
2023-04-03T13:18:27.132Z,102843.47
2023-04-03T13:20:57.820Z,102745.28
2023-04-03T13:23:25.505Z,102787.38
2023-04-03T13:25:52.412Z,102814.34
2023-04-03T13:28:22.864Z,102742.09
2023-04-03T13:30:59.743Z,102753.00
2023-04-03T13:33:29.056Z,102799.69
2023-04-03T13:36:17.751Z,102812.66
2023-04-03T13:38:44.793Z,102800.13
2023-04-03T13:41:33.934Z,102789.13
2023-04-03T13:44:22.359Z,102813.00
2023-04-03T13:46:59.839Z,102739.31
2023-04-03T13:49:58.799Z,102805.84
2023-04-03T13:52:32.057Z,102784.72
2023-04-03T13:55:03.101Z,102789.94
2023-04-03T13:57:32.371Z,102761.00
2023-04-03T13:59:59.091Z,102800.63
2023-04-03T14:02:35.531Z,102707.66
2023-04-03T14:05:04.370Z,102779.63
2023-04-03T14:07:32.113Z,102802.69
2023-04-03T14:09:59.173Z,102765.56
2023-04-03T14:12:34.155Z,102762.22
2023-04-03T14:15:03.202Z,102794.22
2023-04-03T14:17:30.106Z,102718.34
2023-04-03T14:19:58.556Z,102681.13
2023-04-03T14:22:29.463Z,102688.41
2023-04-03T14:24:56.998Z,102759.63
2023-04-03T14:27:42.616Z,102766.66
2023-04-03T14:30:16.599Z,102769.28
2023-04-03T14:32:44.785Z,102763.03
2023-04-03T14:35:11.598Z,102765.69
2023-04-03T14:37:38.248Z,102730.22
2023-04-03T14:40:06.598Z,102695.22
2023-04-03T14:42:37.236Z,102719.53
2023-04-03T14:45:07.772Z,102759.81
2023-04-03T14:47:41.922Z,102772.50
2023-04-03T14:50:09.415Z,102675.00
2023-04-03T14:52:37.050Z,102749.84
2023-04-03T14:55:06.778Z,102733.66
2023-04-03T14:57:34.573Z,102741.19
2023-04-03T15:00:02.387Z,102688.47
2023-04-03T15:02:33.615Z,102765.16
2023-04-03T15:05:03.848Z,102765.47
2023-04-03T15:07:34.633Z,102748.22
2023-04-03T15:10:14.814Z,102686.81
2023-04-03T15:12:42.493Z,102722.16
2023-04-03T15:15:09.826Z,102741.75
2023-04-03T15:17:37.075Z,102746.91
2023-04-03T15:20:12.521Z,102733.22
2023-04-03T15:22:40.329Z,102761.44
2023-04-03T15:25:07.384Z,102722.13
2023-04-03T15:27:34.005Z,102729.78
2023-04-03T15:30:00.619Z,102735.00
2023-04-03T15:32:27.901Z,102744.41
2023-04-03T15:34:56.736Z,102746.66
2023-04-03T15:37:24.179Z,102724.72
2023-04-03T15:39:51.001Z,102723.50
2023-04-03T15:42:17.611Z,102726.81
2023-04-03T15:44:44.307Z,102732.19
2023-04-03T15:47:11.378Z,102750.41
2023-04-03T15:49:39.052Z,102711.25
2023-04-03T15:52:05.878Z,102744.03
2023-04-03T15:54:32.707Z,102757.03
2023-04-03T15:56:59.388Z,102753.94
2023-04-03T15:59:26.018Z,102742.81
2023-04-03T16:01:53.489Z,102731.22
2023-04-03T16:04:21.815Z,102738.81
2023-04-03T16:06:49.843Z,102751.09
2023-04-03T16:09:16.690Z,102713.16
2023-04-03T16:11:44.376Z,102731.41
2023-04-03T16:14:11.351Z,102767.97
2023-04-03T16:16:39.153Z,102673.13
2023-04-03T16:19:06.379Z,102732.31
2023-04-03T16:21:34.050Z,102721.47
2023-04-03T16:24:01.991Z,102760.00
2023-04-03T16:26:28.593Z,102728.84
2023-04-03T16:28:55.536Z,102742.03
2023-04-03T16:31:23.978Z,102759.50
2023-04-03T16:33:50.984Z,102748.06
2023-04-03T16:36:17.632Z,102668.22
2023-04-03T16:38:44.295Z,102728.81
2023-04-03T16:41:10.867Z,102744.22
2023-04-03T16:43:37.911Z,102644.88
2023-04-03T16:46:04.791Z,102694.16
2023-04-03T16:48:32.072Z,102743.00
2023-04-03T16:50:58.716Z,102752.06
2023-04-03T16:53:27.079Z,102756.97
2023-04-03T16:55:54.221Z,102754.03
2023-04-03T16:58:22.613Z,102741.78
2023-04-03T17:00:50.952Z,102767.22
2023-04-03T17:03:17.874Z,102752.50
2023-04-03T17:05:48.244Z,102786.03
2023-04-03T17:08:15.025Z,102759.25
2023-04-03T17:10:41.721Z,102760.84
2023-04-03T17:13:09.111Z,102743.22
2023-04-03T17:15:35.983Z,102754.59
2023-04-03T17:18:02.915Z,102751.03
2023-04-03T17:20:30.939Z,102761.22
2023-04-03T17:22:57.634Z,102759.03
2023-04-03T17:25:24.195Z,102763.88
2023-04-03T17:27:50.861Z,102665.41
2023-04-03T17:30:17.604Z,102713.19
2023-04-03T17:32:44.216Z,102748.88
2023-04-03T17:35:11.730Z,102756.78
2023-04-03T17:37:38.713Z,102763.22
2023-04-03T17:40:06.323Z,102781.09
2023-04-03T17:42:33.532Z,102763.84
2023-04-03T17:45:01.081Z,102762.66
2023-04-03T17:47:27.994Z,102696.28
2023-04-03T17:49:54.713Z,102769.09
2023-04-03T17:52:24.102Z,102785.69
2023-04-03T17:54:51.129Z,102777.75
2023-04-03T17:57:17.786Z,102810.47
2023-04-03T17:59:44.417Z,102700.31
2023-04-03T18:02:11.154Z,102668.78
2023-04-03T18:04:37.838Z,102776.03
2023-04-03T18:07:09.650Z,102776.03
2023-04-03T18:09:38.148Z,102805.63
2023-04-03T18:12:07.294Z,102670.66
2023-04-03T18:14:37.294Z,102774.25
2023-04-03T18:17:04.178Z,102796.63
2023-04-03T18:19:30.972Z,102788.75
2023-04-03T18:22:01.674Z,102665.84
2023-04-03T18:24:29.562Z,102802.59
2023-04-03T18:27:00.386Z,102747.81
2023-04-03T18:29:30.462Z,102759.78
2023-04-03T18:31:58.830Z,102769.44
2023-04-03T18:34:25.718Z,102790.63
2023-04-03T18:36:52.584Z,102802.56
2023-04-03T18:39:19.402Z,102790.59
2023-04-03T18:41:47.626Z,102771.66
2023-04-03T18:44:17.120Z,102678.88
2023-04-03T18:46:44.058Z,102776.50
2023-04-03T18:49:12.032Z,102810.22
2023-04-03T18:51:41.778Z,102824.63
2023-04-03T18:54:09.897Z,102830.16
2023-04-03T18:56:37.814Z,102773.44
2023-04-03T18:59:05.520Z,102775.03
2023-04-03T19:01:33.979Z,102808.06
2023-04-03T19:04:01.079Z,102826.69
2023-04-03T19:06:28.115Z,102812.69
2023-04-03T19:08:54.961Z,102754.78
2023-04-03T19:11:21.741Z,102723.22
2023-04-03T19:14:04.285Z,102834.50
2023-04-03T19:16:35.175Z,102813.88
2023-04-03T19:19:01.973Z,102835.34
2023-04-03T19:21:28.753Z,102797.25
2023-04-03T19:23:58.973Z,102796.59
2023-04-03T19:26:26.648Z,102787.16
2023-04-03T19:28:53.313Z,102814.25
2023-04-03T19:31:21.493Z,102827.72
2023-04-03T19:33:48.344Z,102807.97
2023-04-03T19:36:16.129Z,102809.03
2023-04-03T19:38:42.930Z,102788.47
2023-04-03T19:41:19.728Z,102833.69
2023-04-03T19:43:49.324Z,102769.53
2023-04-03T19:46:18.575Z,102812.22
2023-04-03T19:48:47.328Z,102791.94
2023-04-03T19:51:14.613Z,102789.63
2023-04-03T19:53:41.306Z,102784.38
2023-04-03T19:56:08.009Z,102804.91
2023-04-03T19:58:34.801Z,102788.47
2023-04-03T20:01:01.401Z,102806.72
2023-04-03T20:03:28.004Z,102800.88
2023-04-03T20:05:55.067Z,102836.06
2023-04-03T20:08:21.706Z,102807.56
2023-04-03T20:10:49.007Z,102822.75
2023-04-03T20:13:15.743Z,102835.44
2023-04-03T20:15:44.537Z,102813.00
2023-04-03T20:18:17.739Z,102760.50
2023-04-03T20:20:45.887Z,102691.84
2023-04-03T20:23:12.873Z,102836.09
2023-04-03T20:25:54.071Z,102765.50
2023-04-03T20:28:24.961Z,102816.91
2023-04-03T20:30:54.981Z,102843.84
2023-04-03T20:33:23.538Z,102842.03
2023-04-03T20:35:50.663Z,102786.03
2023-04-03T20:38:17.325Z,102806.63
2023-04-03T20:40:43.999Z,102809.59
2023-04-03T20:43:10.706Z,102825.56
2023-04-03T20:45:37.362Z,102789.50
2023-04-03T20:48:05.799Z,102837.69
2023-04-03T20:50:33.789Z,102731.44
2023-04-03T20:53:01.910Z,102719.81
2023-04-03T20:55:29.714Z,102827.63
2023-04-03T20:58:00.918Z,102810.16
2023-04-03T21:00:29.076Z,102807.84
2023-04-03T21:02:57.791Z,102847.03
2023-04-03T21:05:26.232Z,102708.13
2023-04-03T21:08:31.974Z,102845.44
2023-04-03T21:11:36.603Z,102848.19
2023-04-03T21:14:41.478Z,102842.81
2023-04-03T21:17:08.043Z,102822.47
2023-04-03T21:19:40.089Z,102801.19
2023-04-03T21:22:06.746Z,102847.34
2023-04-03T21:24:33.452Z,102802.66
2023-04-03T21:27:00.102Z,102822.53
2023-04-03T21:29:26.723Z,102842.66
2023-04-03T21:31:59.195Z,102729.81
2023-04-03T21:34:27.850Z,102722.97
2023-04-03T21:36:55.917Z,102703.56
2023-04-03T21:39:23.210Z,102782.31
2023-04-03T21:41:51.600Z,102824.13
2023-04-03T21:44:21.359Z,102773.72
2023-04-03T21:46:49.384Z,102819.97
2023-04-03T21:49:16.258Z,102784.56
2023-04-03T21:51:42.908Z,102753.94
2023-04-03T21:54:09.576Z,102789.69
2023-04-03T21:56:36.274Z,102805.41
2023-04-03T21:59:03.377Z,102793.66
2023-04-03T22:01:30.512Z,102687.19
2023-04-03T22:04:02.561Z,102715.44
2023-04-03T22:06:29.806Z,102716.00
2023-04-03T22:08:59.254Z,102824.13
2023-04-03T22:11:27.623Z,102795.94
2023-04-03T22:13:55.394Z,102828.19
2023-04-03T22:16:23.556Z,102792.78
2023-04-03T22:18:52.079Z,102821.00
2023-04-03T22:21:18.986Z,102781.06
2023-04-03T22:23:45.812Z,102789.72
2023-04-03T22:26:13.626Z,102819.63
2023-04-03T22:28:45.703Z,102799.09
2023-04-03T22:31:16.118Z,102835.19
2023-04-03T22:33:44.156Z,102806.59
2023-04-03T22:36:12.985Z,102801.34
2023-04-03T22:38:43.347Z,102791.28
2023-04-03T22:41:10.241Z,102754.38
2023-04-03T22:43:37.860Z,102771.63
2023-04-03T22:46:06.880Z,102811.44
2023-04-03T22:48:33.680Z,102757.81
2023-04-03T22:51:01.547Z,102690.31
2023-04-03T22:53:28.688Z,102768.44
2023-04-03T22:55:59.006Z,102818.75
2023-04-03T22:58:26.563Z,102747.53
2023-04-03T23:01:13.536Z,102684.84
2023-04-03T23:03:41.823Z,102793.28
2023-04-03T23:06:09.837Z,102683.66
2023-04-03T23:08:40.792Z,102786.31
2023-04-03T23:11:09.575Z,102697.22
2023-04-03T23:13:37.151Z,102700.22
2023-04-03T23:16:04.758Z,102777.00
2023-04-03T23:18:32.773Z,102708.69
2023-04-03T23:21:01.154Z,102728.81
2023-04-03T23:23:27.873Z,102770.19
2023-04-03T23:25:59.283Z,102799.69
2023-04-03T23:28:27.220Z,102783.13
2023-04-03T23:31:00.284Z,102700.97
2023-04-03T23:33:27.849Z,102698.38
2023-04-03T23:35:54.551Z,102798.75
2023-04-03T23:38:21.440Z,102673.81
2023-04-03T23:40:48.192Z,102796.78
2023-04-03T23:43:14.839Z,102779.19
2023-04-03T23:45:41.816Z,102782.19
2023-04-03T23:48:08.933Z,102767.44
2023-04-03T23:50:35.566Z,102781.94
2023-04-03T23:53:02.240Z,102751.63
2023-04-03T23:55:28.841Z,102764.94
2023-04-03T23:57:55.413Z,102776.69
